Skip Navigation Links Skip Navigation Links

Current Weather

Ndjamena, Chad

For information only: do not use for flight planning or navigation.
Latest weather
Observation time Monday, November 29, 2021 10:00 PM WAT
Local time Monday, November 29, 2021 10:57 PM WAT
Flight conditions Marginal Visual Meteorological Conditions
Winds
Wind direction North (350°)
Wind speed 8 mph
Visibility 5 mi.
Sky condition
Ceiling unlimited
Temperature 82°F
Dewpoint 39°F
Altimeter 29.83 in.Hg
Derived measurements
Relative humidity 22%
Heat index 82°F
Density altitude 2023 ft.
Remarks
No significant changes expected in the next two hours.
METAR FTTJ 292100Z 35007KT 8000 NSC 28/04 Q1010 NOSIG

Settings

Location code

InnerDrive.Weather 4.0.6770.0 Release CLR 4.0.30319.42000
Copyright ©2018 Inner Drive Technology. All rights reserved. Portions Copyright ©1986-2018 David Braverman.

Find weather

Site navigation


Skip Navigation Links

Place info

Page info

PayPal - The safer, easier way to pay online!

Return home.

Copyright ©2021 Inner Drive Technology. Purveyors of fine, hand-crafted computer software. Page printed 2021-11-29T21:57:13 UTC.